Terminal Aerodrome Forecast
Issued by NWS

Home | Current Version | Previous Version | Graphics & Text | Print | Product List | Glossary On
Versions: 1 2 3 4 5 6 7 8 9 10 11 12 13 14 15 16 17 18 19
000
FTUS43 KMPX 290520
TAFRNH
TAF
KRNH 290520Z 2906/3006 14006KT P6SM SKC
     FM290900 16003KT 6SM BR SCT150
      TEMPO 2910/2912 4SM BR
     FM291400 17005KT P6SM BKN200
     FM292000 21009KT P6SM BKN150=

USA.gov is the U.S. government's official web portal to all federal, state and local government web resources and services.